Time;durP1;ratioP1;P1;durP2;ratioP2;P2;SDS_P1;SDS_P2;PMS_P1;PMS_P2;Temp;Humidity;BMP_temperature;BMP_pressure;BME280_temperature;BME280_humidity;BME280_pressure;Samples;Min_cycle;Max_cycle;Signal;HPM_P1;HPM_P2
2022/06/14 00:00:54;;;;;;;7.80;1.10;;;;;;;12.62;65.25;101012.16;5072266;28;20457;-82
2022/06/14 00:03:30;;;;;;;3.92;1.00;;;;;;;12.62;65.36;101008.63;5072122;28;20101;-82
2022/06/14 00:05:58;;;;;;;6.35;1.52;;;;;;;12.51;65.83;101007.38;5072794;28;20581;-82
2022/06/14 00:08:25;;;;;;;4.47;1.33;;;;;;;12.45;66.14;101009.47;5072084;28;20040;-83
2022/06/14 00:10:52;;;;;;;3.60;1.35;;;;;;;12.56;66.10;101004.44;5072349;28;20024;-83
2022/06/14 00:13:17;;;;;;;3.13;1.35;;;;;;;12.62;65.90;101009.44;5070957;28;20029;-82
2022/06/14 00:15:45;;;;;;;9.23;1.17;;;;;;;12.70;65.87;101010.50;5071922;28;20052;-82
2022/06/14 00:18:15;;;;;;;3.05;0.82;;;;;;;12.71;65.84;101006.66;5072157;28;20432;-82
2022/06/14 00:20:43;;;;;;;4.88;1.05;;;;;;;12.80;65.39;101001.97;5072147;28;20079;-81
2022/06/14 00:23:09;;;;;;;4.47;0.80;;;;;;;12.71;65.66;100998.44;5072637;28;20036;-82
2022/06/14 00:25:39;;;;;;;;;;;;;;;12.69;65.86;101006.19;5072395;28;20489;-83
2022/06/14 00:28:07;;;;;;;6.07;1.00;;;;;;;12.64;65.87;101000.91;5070804;28;20290;-83
2022/06/14 00:30:33;;;;;;;5.10;1.77;;;;;;;12.56;66.09;101007.19;5072301;28;20446;-83
2022/06/14 00:32:59;;;;;;;;;;;;;;;12.45;66.27;101001.28;5072239;28;20483;-83
2022/06/14 00:35:25;;;;;;;5.07;1.73;;;;;;;12.43;66.79;100997.25;5073956;28;20251;-83
2022/06/14 00:37:50;;;;;;;;;;;;;;;12.27;66.93;101003.25;5075761;28;20433;-83
2022/06/14 00:40:25;;;;;;;3.47;1.23;;;;;;;12.28;67.12;101002.13;5075338;28;19912;-83
2022/06/14 00:42:51;;;;;;;6.18;1.48;;;;;;;12.22;67.48;101003.41;5075465;28;20040;-83
2022/06/14 00:45:16;;;;;;;;;;;;;;;12.22;67.38;101000.69;5075915;28;20471;-82
2022/06/14 00:48:12;;;;;;;3.10;1.07;;;;;;;12.32;67.31;100991.34;5075629;28;19915;-82
2022/06/14 00:50:43;;;;;;;5.85;1.20;;;;;;;12.27;67.33;100992.34;5067173;28;20048;-83
2022/06/14 00:53:26;;;;;;;5.38;1.85;;;;;;;12.23;68.01;100988.63;5075292;28;20033;-83
2022/06/14 00:56:44;;;;;;;5.38;1.20;;;;;;;12.26;67.84;100984.44;5074960;28;20390;-83
2022/06/14 00:59:26;;;;;;;3.80;1.50;;;;;;;12.31;67.61;100981.56;5056341;28;20139;-83
2022/06/14 01:01:58;;;;;;;3.25;1.25;;;;;;;12.32;67.56;100986.69;5076389;28;20463;-84
2022/06/14 01:04:29;;;;;;;4.53;1.30;;;;;;;12.30;67.69;100978.03;5075141;28;20116;-85
2022/06/14 01:07:18;;;;;;;5.18;1.50;;;;;;;12.23;67.64;100979.63;5075128;28;20056;-84
2022/06/14 01:09:52;;;;;;;5.32;1.70;;;;;;;12.26;67.59;100977.09;5074900;28;20055;-84
2022/06/14 01:12:25;;;;;;;8.40;1.70;;;;;;;12.31;67.75;100974.16;5074951;28;20037;-84
2022/06/14 01:15:18;;;;;;;5.35;1.17;;;;;;;12.97;65.83;100978.41;5073682;28;20060;-84
2022/06/14 01:17:47;;;;;;;3.17;1.15;;;;;;;12.90;65.68;100976.97;5074888;28;20033;-83
2022/06/14 01:20:16;;;;;;;3.20;1.27;;;;;;;12.91;66.10;100981.31;5074411;28;20043;-83
2022/06/14 01:22:42;;;;;;;2.80;1.10;;;;;;;12.79;66.51;100985.91;5074911;28;20382;-83
2022/06/14 01:25:09;;;;;;;5.20;1.15;;;;;;;12.56;67.34;100988.88;5074801;28;20032;-84
2022/06/14 01:27:37;;;;;;;5.57;1.95;;;;;;;12.43;67.80;100983.59;5074613;28;20032;-84
2022/06/14 01:30:13;;;;;;;4.00;1.25;;;;;;;12.51;67.41;100985.50;5074573;28;20120;-84
2022/06/14 01:32:47;;;;;;;;;;;;;;;12.39;67.61;100985.38;5073619;28;20032;-83
2022/06/14 01:35:17;;;;;;;3.75;1.10;;;;;;;12.37;68.28;100988.44;5074335;28;19909;-83
2022/06/14 01:37:47;;;;;;;4.38;1.38;;;;;;;12.35;68.33;100988.78;5074404;28;20314;-84
2022/06/14 01:40:12;;;;;;;3.63;1.17;;;;;;;12.57;66.95;100995.13;5074290;28;20121;-83
2022/06/14 01:43:03;;;;;;;4.60;1.45;;;;;;;12.28;68.34;100993.13;5074471;28;20072;-82
2022/06/14 01:45:44;;;;;;;4.63;1.20;;;;;;;12.24;67.90;100997.63;5073748;28;20044;-83
2022/06/14 01:48:19;;;;;;;5.28;1.50;;;;;;;12.10;68.72;100997.03;5074348;28;20464;-83
2022/06/14 01:54:20;;;;;;;4.40;1.67;;;;;;;11.93;69.72;100989.66;5073902;28;20097;-84
2022/06/14 01:56:57;;;;;;;3.70;1.35;;;;;;;12.46;67.81;100989.22;5074015;28;20056;-84
2022/06/14 01:59:29;;;;;;;4.93;1.20;;;;;;;12.32;67.95;100989.44;5074006;28;20068;-83
2022/06/14 02:02:02;;;;;;;3.45;1.30;;;;;;;12.29;68.30;100987.34;5072682;28;20127;-85
2022/06/14 02:04:38;;;;;;;2.97;1.40;;;;;;;12.12;68.71;100987.38;5073972;28;20080;-83
2022/06/14 02:07:09;;;;;;;4.13;1.60;;;;;;;12.00;69.26;100990.75;5074033;28;20029;-84
2022/06/14 02:09:56;;;;;;;3.60;1.40;;;;;;;12.00;69.57;100981.78;5073489;28;20047;-84
2022/06/14 02:12:52;;;;;;;3.92;1.48;;;;;;;12.07;69.24;100978.53;5073678;28;20510;-84
2022/06/14 02:15:48;;;;;;;3.17;1.20;;;;;;;11.97;69.56;100975.03;5074183;28;20055;-84
2022/06/14 02:18:30;;;;;;;3.53;1.25;;;;;;;11.94;69.99;100980.34;5073528;28;20082;-84
2022/06/14 02:21:02;;;;;;;2.92;1.33;;;;;;;12.01;69.87;100980.66;5073678;28;20036;-84
2022/06/14 02:23:50;;;;;;;5.50;1.58;;;;;;;12.00;69.79;100979.03;5073542;28;20028;-85
2022/06/14 02:26:26;;;;;;;5.22;1.30;;;;;;;11.91;69.99;100976.31;5073403;28;20127;-84
2022/06/14 02:29:06;;;;;;;5.45;1.52;;;;;;;11.94;70.04;100974.88;5073380;28;20506;-85
2022/06/14 02:31:41;;;;;;;3.92;1.52;;;;;;;11.90;70.05;100973.91;5073292;28;20036;-84
2022/06/14 02:34:17;;;;;;;4.72;1.83;;;;;;;12.01;69.88;100975.19;5073256;28;20032;-85
2022/06/14 02:36:51;;;;;;;5.45;1.88;;;;;;;12.03;69.99;100972.94;5073203;28;20021;-84
2022/06/14 02:39:29;;;;;;;5.32;1.40;;;;;;;11.99;69.90;100972.78;5071921;28;20119;-84
2022/06/14 02:42:20;;;;;;;4.38;1.33;;;;;;;12.15;69.38;100969.53;5073158;28;20029;-85
2022/06/14 02:44:49;;;;;;;5.40;1.30;;;;;;;12.00;69.82;100963.47;5072999;28;20134;-85
2022/06/14 02:47:25;;;;;;;6.45;1.88;;;;;;;11.91;70.33;100970.84;5073159;28;20024;-84
2022/06/14 02:49:55;;;;;;;6.90;1.63;;;;;;;11.81;70.70;100962.22;5072725;28;20364;-85
2022/06/14 02:52:35;;;;;;;5.22;1.92;;;;;;;11.84;70.73;100961.56;5073407;28;20036;-84
2022/06/14 02:55:11;;;;;;;7.32;1.45;;;;;;;11.83;70.70;100963.50;5072883;28;20029;-85
2022/06/14 02:57:45;;;;;;;6.35;2.28;;;;;;;11.85;70.62;100963.16;5072677;28;20118;-85
2022/06/14 03:00:21;;;;;;;4.75;1.85;;;;;;;11.88;70.34;100955.13;5073436;28;20360;-85
2022/06/14 03:02:57;;;;;;;4.95;1.75;;;;;;;11.85;70.50;100960.44;5071622;28;20458;-85
2022/06/14 03:05:42;;;;;;;4.90;1.58;;;;;;;11.80;70.84;100957.88;5073025;28;20305;-84
2022/06/14 03:08:17;;;;;;;5.78;1.67;;;;;;;11.85;70.72;100957.72;5073112;28;20036;-83
2022/06/14 03:10:48;;;;;;;4.95;1.85;;;;;;;12.02;69.67;100946.75;5072435;28;20028;-84
2022/06/14 03:13:38;;;;;;;5.43;1.88;;;;;;;11.84;70.87;100961.56;5072845;28;20115;-84
2022/06/14 03:16:24;;;;;;;6.97;2.22;;;;;;;11.78;71.10;100960.91;5071574;28;20032;-82
2022/06/14 03:19:44;;;;;;;5.15;1.77;;;;;;;11.81;71.09;100970.41;5072458;28;20463;-84
2022/06/14 03:22:20;;;;;;;4.93;1.63;;;;;;;11.77;71.08;100967.47;5050142;28;20529;-84
2022/06/14 03:25:11;;;;;;;9.77;3.03;;;;;;;11.56;71.52;100975.47;5069431;28;20037;-81
2022/06/14 03:27:42;;;;;;;4.70;1.63;;;;;;;11.61;71.46;100971.81;5072941;28;20374;-82
2022/06/14 03:30:23;;;;;;;5.82;1.70;;;;;;;11.56;71.96;100970.03;5072320;28;20032;-82
2022/06/14 03:33:18;;;;;;;6.60;1.95;;;;;;;11.72;71.71;100954.78;5071228;28;20029;-82
2022/06/14 03:35:47;;;;;;;5.55;1.73;;;;;;;12.19;69.84;100963.09;5070104;28;20111;-83
2022/06/14 03:38:39;;;;;;;3.92;1.63;;;;;;;12.25;69.14;100970.00;5072305;28;20020;-82
2022/06/14 03:41:09;;;;;;;3.55;1.50;;;;;;;12.19;69.89;100965.84;5070064;28;20047;-82
2022/06/14 03:43:36;;;;;;;3.13;1.38;;;;;;;12.14;70.09;100962.50;5072266;28;20039;-83
2022/06/14 03:46:19;;;;;;;5.00;1.45;;;;;;;12.13;70.13;100966.34;5072237;28;20104;-82
2022/06/14 03:48:47;;;;;;;4.32;1.90;;;;;;;11.98;70.57;100970.38;5072532;28;20029;-82
2022/06/14 03:51:31;;;;;;;3.20;1.15;;;;;;;11.89;71.10;100961.38;5072505;28;20056;-82
2022/06/14 03:54:02;;;;;;;6.50;1.33;;;;;;;11.78;71.46;100962.81;5072225;28;20036;-83
2022/06/14 03:56:53;;;;;;;2.97;1.48;;;;;;;11.71;71.80;100955.91;5070910;28;20036;-83
2022/06/14 03:59:27;;;;;;;4.57;1.40;;;;;;;11.69;71.96;100960.88;5071131;28;20404;-82
2022/06/14 04:02:11;;;;;;;3.58;1.35;;;;;;;11.61;71.96;100956.25;5072919;28;20063;-82
2022/06/14 04:04:58;;;;;;;4.97;1.20;;;;;;;11.70;71.92;100957.03;5072009;28;20195;-81
2022/06/14 04:07:47;;;;;;;3.90;1.70;;;;;;;11.70;71.89;100951.56;5072418;28;20025;-82
2022/06/14 04:10:21;;;;;;;6.00;1.30;;;;;;;11.65;72.38;100956.41;5075575;28;20028;-82
2022/06/14 04:12:50;;;;;;;4.65;1.42;;;;;;;11.64;72.08;100958.34;5076170;28;20051;-83
2022/06/14 04:15:31;;;;;;;5.97;1.52;;;;;;;11.60;72.63;100965.56;5076296;28;20308;-83
2022/06/14 04:18:03;;;;;;;4.10;1.58;;;;;;;11.63;72.80;100964.13;5075891;28;20043;-83
2022/06/14 04:20:48;;;;;;;3.40;1.38;;;;;;;11.63;72.44;100954.00;5075481;28;20051;-81
2022/06/14 04:23:48;;;;;;;3.65;1.40;;;;;;;11.47;73.15;100952.88;5075675;28;20040;-82
2022/06/14 04:26:24;;;;;;;3.83;1.42;;;;;;;11.31;73.65;100954.47;5075380;28;20063;-82
2022/06/14 04:29:02;;;;;;;5.95;1.92;;;;;;;11.20;74.06;100967.59;5075373;28;20032;-84
2022/06/14 04:31:40;;;;;;;4.40;1.52;;;;;;;11.26;74.32;100954.63;5076473;28;20107;-85
2022/06/14 04:34:16;;;;;;;9.75;1.90;;;;;;;11.32;73.94;100965.03;5075728;28;20355;-84
2022/06/14 04:36:56;;;;;;;4.60;1.17;;;;;;;11.31;73.86;100963.44;5074207;28;20025;-83
2022/06/14 04:39:33;;;;;;;4.55;1.42;;;;;;;11.20;74.57;100962.13;5075443;28;20047;-84
2022/06/14 04:42:04;;;;;;;8.35;1.80;;;;;;;11.40;74.10;100952.53;5075700;28;20370;-83
2022/06/14 04:44:44;;;;;;;5.35;1.80;;;;;;;11.58;73.44;100962.31;5074546;28;20043;-85
2022/06/14 04:47:19;;;;;;;6.57;1.88;;;;;;;11.60;73.35;100951.13;5076208;28;20031;-85
2022/06/14 04:49:50;;;;;;;4.70;1.70;;;;;;;11.61;73.36;100956.25;5082627;28;20029;-87
2022/06/14 04:52:34;;;;;;;5.55;2.00;;;;;;;11.63;73.17;100954.00;5083993;28;20099;-86
2022/06/14 04:55:07;;;;;;;5.15;1.52;;;;;;;11.58;73.91;100956.88;5077277;28;20032;-85
2022/06/14 04:57:43;;;;;;;7.95;1.75;;;;;;;11.80;72.55;100958.69;5076791;28;20037;-85
2022/06/14 05:00:15;;;;;;;6.03;1.95;;;;;;;11.68;73.26;100956.56;5077738;28;20052;-82
2022/06/14 05:03:07;;;;;;;7.03;2.22;;;;;;;11.72;73.58;100951.25;5076465;28;20028;-83
2022/06/14 05:05:45;;;;;;;6.07;2.40;;;;;;;11.75;73.69;100945.94;5075788;28;20029;-82
2022/06/14 05:08:24;;;;;;;7.68;3.03;;;;;;;11.81;73.58;100948.56;5075888;28;20064;-84
2022/06/14 05:11:16;;;;;;;10.65;2.78;;;;;;;12.34;71.05;100951.66;5075670;28;20463;-82
2022/06/14 05:13:52;;;;;;;5.05;2.05;;;;;;;12.43;70.51;100953.56;5076475;28;20040;-82
2022/06/14 05:16:43;;;;;;;5.50;2.25;;;;;;;12.30;71.90;100950.72;5075959;28;20443;-83
2022/06/14 05:19:44;;;;;;;7.10;2.25;;;;;;;12.46;70.89;100950.19;5075180;28;20119;-82
2022/06/14 05:22:23;;;;;;;4.97;2.20;;;;;;;12.82;69.49;100953.25;5075462;28;20039;-84
2022/06/14 05:24:49;;;;;;;8.52;2.80;;;;;;;12.64;70.23;100955.25;5075675;28;20032;-83
2022/06/14 05:27:37;;;;;;;5.50;2.08;;;;;;;12.61;70.67;100960.59;5075278;28;20071;-82
2022/06/14 05:30:23;;;;;;;6.38;2.20;;;;;;;12.79;69.96;100961.31;5075812;28;20090;-85
2022/06/14 05:33:09;;;;;;;5.15;2.58;;;;;;;12.82;70.88;100961.44;5075588;28;20461;-85
2022/06/14 05:35:52;;;;;;;9.77;2.42;;;;;;;12.91;70.44;100964.91;5075703;28;20025;-85
2022/06/14 05:38:32;;;;;;;5.88;2.45;;;;;;;12.83;70.43;100965.78;5076187;28;20040;-85
2022/06/14 05:41:04;;;;;;;5.38;2.63;;;;;;;12.86;69.65;100969.78;5075835;28;20044;-85
2022/06/14 05:43:35;;;;;;;5.78;2.15;;;;;;;12.87;69.55;100966.72;5074722;28;20097;-85
2022/06/14 05:46:08;;;;;;;11.85;3.05;;;;;;;12.98;69.35;100974.56;5074269;28;20379;-82
2022/06/14 05:48:47;;;;;;;6.75;2.45;;;;;;;13.00;68.86;100972.28;5073833;28;20516;-83
2022/06/14 05:51:14;;;;;;;5.80;2.25;;;;;;;13.13;68.75;100974.78;5073805;28;20017;-84
2022/06/14 05:54:08;;;;;;;5.88;2.40;;;;;;;13.25;68.60;100983.09;5073715;28;20420;-82
2022/06/14 05:56:39;;;;;;;7.60;2.53;;;;;;;13.21;67.92;100978.63;5074451;28;20414;-80
2022/06/14 05:59:24;;;;;;;4.32;2.10;;;;;;;13.48;67.43;100983.59;5074331;28;20055;-80
2022/06/14 06:01:57;;;;;;;4.68;2.70;;;;;;;13.73;66.05;100983.72;5074351;28;20064;-82
2022/06/14 06:05:05;;;;;;;4.93;2.20;;;;;;;13.63;67.49;100978.66;5074366;28;20024;-82
2022/06/14 06:07:38;;;;;;;5.72;2.20;;;;;;;13.98;65.90;100990.91;5034767;28;20609;-81
2022/06/14 06:10:23;;;;;;;4.45;1.45;;;;;;;14.27;66.07;100989.16;5051701;28;20395;-83
2022/06/14 06:13:13;;;;;;;7.50;2.20;;;;;;;14.22;64.65;100989.38;5066617;28;20036;-82
2022/06/14 06:15:45;;;;;;;4.53;1.67;;;;;;;14.65;63.52;100989.75;5073735;28;20036;-82
2022/06/14 06:18:18;;;;;;;3.60;1.60;;;;;;;14.54;63.58;100985.03;5073773;28;20028;-82
2022/06/14 06:20:53;;;;;;;6.32;2.20;;;;;;;14.63;62.43;100994.78;5073614;28;20058;-83
2022/06/14 06:23:28;;;;;;;5.38;2.10;;;;;;;14.50;62.74;100990.41;5073759;28;20478;-82
2022/06/14 06:25:55;;;;;;;6.20;1.25;;;;;;;14.64;62.32;100993.63;5072730;28;20025;-82
2022/06/14 06:28:29;;;;;;;3.42;1.48;;;;;;;14.47;62.16;100991.09;5073726;28;20025;-81
2022/06/14 06:31:07;;;;;;;5.82;1.80;;;;;;;14.36;62.65;100998.09;5073309;28;20031;-81
2022/06/14 06:33:36;;;;;;;6.45;1.42;;;;;;;14.61;60.73;100997.06;5073611;28;20036;-82
2022/06/14 06:36:09;;;;;;;2.95;1.13;;;;;;;15.32;58.36;100993.06;5074126;28;20032;-81
2022/06/14 06:38:44;;;;;;;3.38;1.58;;;;;;;15.84;57.04;100995.81;5073670;28;20131;-82
2022/06/14 06:44:06;;;;;;;3.17;1.02;;;;;;;16.82;54.45;100989.81;5073905;28;20039;-81
2022/06/14 06:46:37;;;;;;;3.33;1.05;;;;;;;16.58;54.51;100988.00;5073429;28;20036;-83
2022/06/14 06:49:07;;;;;;;2.80;0.90;;;;;;;16.59;54.32;100997.03;5073678;28;20479;-81
2022/06/14 06:51:41;;;;;;;5.70;1.10;;;;;;;16.15;55.93;100994.31;5073239;28;20391;-82
2022/06/14 06:54:44;;;;;;;4.70;1.30;;;;;;;16.11;55.99;100999.69;5055863;28;20036;-81
2022/06/14 06:57:16;;;;;;;4.80;1.15;;;;;;;16.40;55.63;100994.97;5071351;28;20075;-81
2022/06/14 06:59:46;;;;;;;3.70;1.38;;;;;;;16.34;55.01;101001.91;5072579;28;20035;-81
2022/06/14 07:02:20;;;;;;;3.90;1.15;;;;;;;15.88;56.04;101004.94;5072310;28;20052;-81
2022/06/14 07:05:03;;;;;;;4.15;1.10;;;;;;;15.63;57.18;101007.00;5072594;28;20111;-81
2022/06/14 07:07:53;;;;;;;2.00;0.80;;;;;;;15.87;56.54;101011.59;5070992;28;20033;-81
2022/06/14 07:10:27;;;;;;;4.80;1.45;;;;;;;15.90;57.24;101005.41;5071701;28;20028;-80
2022/06/14 07:13:05;;;;;;;6.45;1.17;;;;;;;16.11;56.52;100996.16;5071907;28;20370;-80
2022/06/14 07:15:49;;;;;;;2.72;0.93;;;;;;;16.11;56.61;101007.13;5072485;28;20032;-82
2022/06/14 07:18:17;;;;;;;3.90;1.30;;;;;;;16.62;54.85;100996.31;5072140;28;20025;-81
2022/06/14 07:20:48;;;;;;;4.40;1.70;;;;;;;17.02;53.60;101002.47;5073408;28;20036;-83
2022/06/14 07:23:48;;;;;;;4.13;1.30;;;;;;;17.51;51.95;100996.53;5072064;28;20028;-81
2022/06/14 07:26:40;;;;;;;3.45;1.30;;;;;;;16.88;53.83;100996.63;5072533;28;20107;-81
2022/06/14 07:29:35;;;;;;;4.80;1.45;;;;;;;16.61;54.55;100997.47;5072943;28;20035;-79
2022/06/14 07:32:16;;;;;;;3.75;1.10;;;;;;;16.65;55.35;100996.44;5069498;28;20094;-81
2022/06/14 07:34:43;;;;;;;4.15;1.58;;;;;;;16.80;54.62;100995.66;5071976;28;20054;-79
2022/06/14 07:37:27;;;;;;;4.50;1.65;;;;;;;16.96;53.74;100992.88;5072322;28;20047;-81
2022/06/14 07:40:05;;;;;;;4.07;1.13;;;;;;;17.49;53.68;100998.84;5070770;28;20044;-80
2022/06/14 07:42:41;;;;;;;4.82;1.52;;;;;;;17.40;53.41;101000.97;5070906;28;20035;-80
2022/06/14 07:45:35;;;;;;;4.43;1.77;;;;;;;17.33;52.42;100998.88;5075796;28;20038;-80
2022/06/14 07:48:15;;;;;;;4.93;1.70;;;;;;;16.93;53.73;101001.06;5076228;28;20052;-78
2022/06/14 07:50:46;;;;;;;6.13;2.08;;;;;;;17.23;52.81;100995.88;5076700;28;20031;-80
2022/06/14 07:53:28;;;;;;;5.30;2.13;;;;;;;17.28;52.84;100999.13;5076333;28;20028;-81
2022/06/14 07:55:59;;;;;;;7.63;2.00;;;;;;;17.05;53.54;100985.25;5076072;28;20415;-78
2022/06/14 07:58:30;;;;;;;6.47;2.03;;;;;;;16.83;53.90;100992.22;5076668;28;20044;-79
2022/06/14 08:01:07;;;;;;;5.68;1.70;;;;;;;16.88;54.79;100996.63;5076245;28;20463;-79
2022/06/14 08:04:07;;;;;;;6.00;2.00;;;;;;;16.53;55.50;100991.00;5075858;28;20028;-79
2022/06/14 08:06:44;;;;;;;6.38;2.10;;;;;;;16.67;54.84;100982.34;5067343;28;20033;-81
2022/06/14 08:09:15;;;;;;;4.20;2.03;;;;;;;16.21;56.49;100992.91;5075619;28;20020;-80
2022/06/14 08:11:55;;;;;;;4.57;2.10;;;;;;;16.37;55.43;100991.00;5075621;28;20032;-79
2022/06/14 08:14:23;;;;;;;5.90;2.28;;;;;;;16.43;54.97;100992.31;5074368;28;20039;-79
2022/06/14 08:16:52;;;;;;;5.75;1.85;;;;;;;16.32;55.54;100980.25;5075582;28;20025;-80
2022/06/14 08:19:26;;;;;;;4.95;2.63;;;;;;;16.02;55.77;100976.28;5075459;28;20020;-80
2022/06/14 08:21:57;;;;;;;4.47;2.40;;;;;;;15.75;56.12;100986.91;5075785;28;20085;-79
2022/06/14 08:24:27;;;;;;;5.30;2.63;;;;;;;15.77;56.80;100986.56;5075699;28;20031;-79
2022/06/14 08:27:03;;;;;;;12.35;3.20;;;;;;;15.77;55.90;100981.88;5074416;28;20035;-81
2022/06/14 08:29:31;;;;;;;8.73;2.75;;;;;;;16.08;55.05;100974.88;5075617;28;20032;-81
2022/06/14 08:32:03;;;;;;;6.32;2.45;;;;;;;15.69;55.42;100971.03;5076575;28;20383;-80
2022/06/14 08:34:38;;;;;;;6.70;2.97;;;;;;;15.54;56.48;100972.53;5075486;28;20025;-79
2022/06/14 08:37:12;;;;;;;5.27;2.53;;;;;;;15.70;55.46;100972.66;5076394;28;20332;-81
2022/06/14 08:39:47;;;;;;;5.25;2.58;;;;;;;15.99;55.06;100964.06;5075956;28;20104;-80
2022/06/14 08:42:36;;;;;;;4.97;2.20;;;;;;;16.01;54.70;100974.69;5075350;28;20028;-81
2022/06/14 08:45:20;;;;;;;8.15;2.72;;;;;;;16.04;54.58;100968.50;5075574;28;20036;-81
2022/06/14 08:48:18;;;;;;;6.30;2.90;;;;;;;15.68;54.67;100967.50;5075168;28;20407;-80
2022/06/14 08:50:56;;;;;;;6.57;2.40;;;;;;;15.79;55.49;100976.03;5075240;28;20025;-80
2022/06/14 08:54:03;;;;;;;4.68;1.92;;;;;;;16.30;54.72;100968.03;5074890;28;20090;-79
2022/06/14 08:56:45;;;;;;;9.10;2.65;;;;;;;16.70;54.09;100960.44;5073148;28;20036;-79
2022/06/14 08:59:45;;;;;;;6.18;2.10;;;;;;;16.68;50.72;100967.47;5075138;28;20033;-80
2022/06/14 09:02:26;;;;;;;9.38;2.35;;;;;;;16.29;52.13;100972.69;5070741;28;20472;-79
2022/06/14 09:05:26;;;;;;;4.63;2.22;;;;;;;16.51;52.29;100961.13;5075411;28;20055;-80
2022/06/14 09:08:09;;;;;;;4.22;2.00;;;;;;;16.53;52.93;100958.03;5075304;28;20102;-81
2022/06/14 09:11:12;;;;;;;6.90;2.70;;;;;;;16.47;52.30;100960.25;5074010;28;20036;-80
2022/06/14 09:14:14;;;;;;;4.85;2.40;;;;;;;16.40;52.08;100957.28;5074801;28;20473;-84
2022/06/14 09:17:02;;;;;;;5.80;2.10;;;;;;;16.68;52.39;100959.22;5074999;28;20029;-79
2022/06/14 09:19:42;;;;;;;7.13;2.13;;;;;;;16.52;51.82;100956.44;5063410;28;20041;-80
2022/06/14 09:22:45;;;;;;;4.68;2.08;;;;;;;16.47;52.25;100952.00;5074333;28;20024;-80
2022/06/14 09:26:02;;;;;;;4.60;2.05;;;;;;;16.31;51.95;100955.88;5073690;28;20029;-82
2022/06/14 09:28:45;;;;;;;6.63;2.55;;;;;;;16.21;51.94;100960.72;5064901;28;20073;-81
2022/06/14 09:31:21;;;;;;;10.60;2.90;;;;;;;16.17;52.45;100956.31;5074153;28;20482;-80
2022/06/14 09:33:49;;;;;;;4.60;2.05;;;;;;;16.28;52.03;100954.63;5075000;28;20048;-80
2022/06/14 09:36:31;;;;;;;4.20;2.05;;;;;;;16.41;52.21;100955.34;5074386;28;20422;-81
2022/06/14 09:39:20;;;;;;;6.93;2.33;;;;;;;16.33;52.47;100962.63;5074450;28;20150;-78
2022/06/14 09:42:15;;;;;;;7.10;3.03;;;;;;;16.28;52.80;100962.06;5071015;28;20051;-77
2022/06/14 09:45:28;;;;;;;7.90;2.97;;;;;;;16.45;52.77;100962.53;5074952;28;20086;-78
2022/06/14 09:48:12;;;;;;;5.68;1.88;;;;;;;16.29;53.53;100964.47;5068784;28;20048;-80
2022/06/14 09:50:58;;;;;;;4.38;2.03;;;;;;;16.68;51.72;100962.75;5074491;28;20039;-79
2022/06/14 09:53:55;;;;;;;4.22;1.85;;;;;;;16.70;52.47;100957.69;5074520;28;20035;-80
2022/06/14 09:56:53;;;;;;;8.15;2.58;;;;;;;16.90;51.12;100977.03;5073736;28;20102;-80
2022/06/14 09:59:37;;;;;;;;;;;;;;;17.36;49.75;100969.84;5070121;28;20059;-80
2022/06/14 10:02:14;;;;;;;7.85;2.25;;;;;;;17.58;48.62;100958.13;5073571;28;20374;-79
2022/06/14 10:05:07;;;;;;;5.10;2.13;;;;;;;17.56;48.71;100954.94;5073402;28;20032;-78
2022/06/14 10:07:55;;;;;;;3.45;1.70;;;;;;;17.58;49.16;100960.06;5072019;28;20056;-80
2022/06/14 10:10:39;;;;;;;5.93;1.90;;;;;;;17.48;48.50;100963.41;5071872;28;20035;-80
2022/06/14 10:13:04;;;;;;;4.65;2.13;;;;;;;16.74;49.27;100952.28;5073320;28;20108;-81
2022/06/14 10:15:35;;;;;;;;;;;;;;;17.55;48.24;100947.81;5073659;28;20104;-79
2022/06/14 10:18:27;;;;;;;4.75;2.13;;;;;;;18.04;46.86;100947.25;5073175;28;19912;-80
2022/06/14 10:20:58;;;;;;;3.70;1.88;;;;;;;17.96;46.53;100945.50;5072929;28;20426;-79
2022/06/14 10:23:57;;;;;;;7.10;2.05;;;;;;;18.19;47.89;100938.09;5072593;28;20448;-79
2022/06/14 10:29:47;;;;;;;9.20;2.80;;;;;;;18.46;47.50;100935.38;5075578;28;20089;-80
2022/06/14 10:32:37;;;;;;;4.18;1.70;;;;;;;18.72;46.71;100929.94;5075367;28;20151;-78
2022/06/14 10:35:21;;;;;;;4.47;2.30;;;;;;;18.65;45.98;100931.81;5074488;28;20036;-77
2022/06/14 10:38:12;;;;;;;4.20;1.90;;;;;;;18.61;47.08;100931.69;5071896;28;20044;-79
2022/06/14 10:40:48;;;;;;;4.78;2.03;;;;;;;18.99;45.55;100928.00;5073027;28;20040;-79
2022/06/14 10:43:40;;;;;;;4.65;2.17;;;;;;;18.81;46.20;100921.41;5072058;28;20027;-82
2022/06/14 10:46:21;;;;;;;5.55;2.65;;;;;;;18.50;45.76;100916.97;5071798;28;20045;-81
2022/06/14 10:49:12;;;;;;;5.57;2.30;;;;;;;18.94;44.99;100925.56;5072891;28;20557;-80
2022/06/14 10:51:58;;;;;;;5.53;2.42;;;;;;;18.88;44.91;100918.78;5073242;28;20029;-82
2022/06/14 10:54:40;;;;;;;7.03;3.50;;;;;;;19.07;44.84;100915.88;5073400;28;20107;-79
2022/06/14 10:57:40;;;;;;;5.38;2.35;;;;;;;19.12;45.50;100910.03;5072435;28;20437;-80
2022/06/14 11:00:34;;;;;;;4.72;2.42;;;;;;;18.80;45.20;100900.50;5072628;28;20024;-82
2022/06/14 11:03:35;;;;;;;6.90;2.28;;;;;;;18.36;46.46;100891.91;5072404;28;20510;-79
2022/06/14 11:06:09;;;;;;;4.95;2.55;;;;;;;18.96;44.55;100890.09;5072310;28;20089;-77
2022/06/14 11:08:46;;;;;;;4.95;2.20;;;;;;;18.90;44.47;100891.59;5072574;28;20043;-78
2022/06/14 11:11:25;;;;;;;3.95;2.20;;;;;;;18.76;44.60;100888.63;5070964;28;20075;-78
2022/06/14 11:14:30;;;;;;;6.68;2.05;;;;;;;19.32;43.86;100882.31;5072535;28;20033;-78
2022/06/14 11:17:20;;;;;;;6.10;1.90;;;;;;;19.39;44.14;100879.63;5071942;28;20032;-78
2022/06/14 11:20:15;;;;;;;5.60;2.25;;;;;;;18.85;45.08;100886.41;5071642;28;20039;-78
2022/06/14 11:23:14;;;;;;;8.35;2.67;;;;;;;18.27;45.83;100873.63;5069674;28;20040;-78
2022/06/14 11:26:02;;;;;;;4.50;2.00;;;;;;;18.81;44.53;100875.31;5071913;28;20028;-77
2022/06/14 11:28:50;;;;;;;4.70;2.03;;;;;;;19.16;43.56;100871.47;5072103;28;20530;-78
2022/06/14 11:31:31;;;;;;;3.85;2.03;;;;;;;19.34;43.20;100883.53;5072966;28;20047;-80
2022/06/14 11:34:16;;;;;;;4.50;2.40;;;;;;;19.21;43.25;100876.66;5072437;28;20035;-80
2022/06/14 11:37:09;;;;;;;6.40;2.40;;;;;;;18.91;44.00;100863.63;5073088;28;20174;-79
2022/06/14 11:39:42;;;;;;;5.22;2.13;;;;;;;18.44;44.79;100866.81;5070647;28;20032;-79
2022/06/14 11:42:30;;;;;;;6.78;2.78;;;;;;;18.69;45.58;100861.75;5071769;28;20118;-79
2022/06/14 11:45:10;;;;;;;4.38;2.10;;;;;;;19.32;43.63;100858.25;5071833;28;20406;-79
2022/06/14 11:48:05;;;;;;;5.53;2.30;;;;;;;19.27;43.60;100864.09;5072209;28;20032;-79
2022/06/14 11:51:03;;;;;;;6.57;2.35;;;;;;;19.23;43.52;100852.22;5071929;28;20104;-78
2022/06/14 11:54:03;;;;;;;5.05;2.15;;;;;;;19.43;43.10;100845.34;5071889;28;20093;-78
2022/06/14 11:56:44;;;;;;;4.63;2.38;;;;;;;19.94;42.87;100844.72;5071701;28;20409;-78
2022/06/14 11:59:22;;;;;;;5.75;2.13;;;;;;;20.21;42.07;100839.06;5072294;28;20120;-78
2022/06/14 12:02:06;;;;;;;7.28;2.70;;;;;;;20.91;40.79;100843.53;5072147;28;20532;-78
2022/06/14 12:04:40;;;;;;;4.60;2.10;;;;;;;20.62;40.41;100832.28;5072281;28;20038;-78
2022/06/14 12:07:20;;;;;;;4.57;2.00;;;;;;;20.48;40.59;100832.16;5072494;28;20043;-78
2022/06/14 12:09:54;;;;;;;5.05;2.03;;;;;;;20.81;39.91;100833.97;5072142;28;20024;-78
2022/06/14 12:12:28;;;;;;;5.50;2.22;;;;;;;20.74;39.70;100828.41;5072095;28;20516;-79
2022/06/14 12:14:56;;;;;;;4.85;2.00;;;;;;;20.72;40.40;100825.22;5071561;28;20370;-78
2022/06/14 12:17:36;;;;;;;6.10;2.92;;;;;;;20.79;39.81;100819.72;5070981;28;20031;-78
2022/06/14 12:20:07;;;;;;;9.50;2.65;;;;;;;20.76;40.24;100819.72;5071683;28;20134;-81
2022/06/14 12:22:49;;;;;;;5.32;2.40;;;;;;;21.09;39.21;100818.69;5072189;28;20039;-78
2022/06/14 12:28:30;;;;;;;7.75;2.33;;;;;;;21.31;38.40;100817.59;5071599;28;20075;-79
2022/06/14 12:31:11;;;;;;;8.05;2.45;;;;;;;20.86;39.16;100807.91;5074446;28;20032;-79
2022/06/14 12:33:45;;;;;;;6.47;2.50;;;;;;;20.58;40.54;100798.25;5074895;28;20044;-79
2022/06/14 12:36:29;;;;;;;14.10;3.33;;;;;;;21.85;37.77;100797.16;5075336;28;20367;-79
2022/06/14 12:39:00;;;;;;;6.15;2.30;;;;;;;22.49;36.59;100794.34;5075155;28;20040;-81